sensor_id;sensor_type;location;lat;lon;timestamp;pressure;altitude;pressure_sealevel;temperature;humidity
71974;BME280;59840;52.122;5.404;2023-05-19T00:01:12;102927.44;;;8.39;86.21
71974;BME280;59840;52.122;5.404;2023-05-19T00:03:52;102934.50;;;8.38;86.41
71974;BME280;59840;52.122;5.404;2023-05-19T00:06:24;102926.34;;;8.33;86.94
71974;BME280;59840;52.122;5.404;2023-05-19T00:09:02;102936.91;;;8.25;87.00
71974;BME280;59840;52.122;5.404;2023-05-19T00:11:30;102934.00;;;8.20;87.41
71974;BME280;59840;52.122;5.404;2023-05-19T00:13:58;102928.91;;;8.19;87.87
71974;BME280;59840;52.122;5.404;2023-05-19T00:16:26;102923.00;;;8.17;87.80
71974;BME280;59840;52.122;5.404;2023-05-19T00:18:53;102922.38;;;8.15;87.90
71974;BME280;59840;52.122;5.404;2023-05-19T00:21:20;102917.09;;;8.15;87.55
71974;BME280;59840;52.122;5.404;2023-05-19T00:23:46;102912.84;;;8.14;88.06
71974;BME280;59840;52.122;5.404;2023-05-19T00:26:13;102907.94;;;8.11;88.74
71974;BME280;59840;52.122;5.404;2023-05-19T00:28:39;102915.53;;;8.05;88.68
71974;BME280;59840;52.122;5.404;2023-05-19T00:31:06;102910.97;;;7.99;88.67
71974;BME280;59840;52.122;5.404;2023-05-19T00:33:33;102912.53;;;7.94;89.15
71974;BME280;59840;52.122;5.404;2023-05-19T00:36:03;102911.09;;;7.83;89.87
71974;BME280;59840;52.122;5.404;2023-05-19T00:38:32;102912.75;;;7.84;89.57
71974;BME280;59840;52.122;5.404;2023-05-19T00:41:00;102903.06;;;7.85;89.96
71974;BME280;59840;52.122;5.404;2023-05-19T00:43:27;102906.19;;;7.80;89.56
71974;BME280;59840;52.122;5.404;2023-05-19T00:45:55;102909.81;;;7.79;90.19
71974;BME280;59840;52.122;5.404;2023-05-19T00:48:24;102915.59;;;7.74;90.55
71974;BME280;59840;52.122;5.404;2023-05-19T00:50:52;102917.56;;;7.72;90.36
71974;BME280;59840;52.122;5.404;2023-05-19T00:53:22;102908.88;;;7.72;90.28
71974;BME280;59840;52.122;5.404;2023-05-19T00:55:49;102907.25;;;7.71;90.46
71974;BME280;59840;52.122;5.404;2023-05-19T00:58:15;102900.03;;;7.65;90.63
71974;BME280;59840;52.122;5.404;2023-05-19T01:00:43;102902.69;;;7.65;90.96
71974;BME280;59840;52.122;5.404;2023-05-19T01:03:09;102903.66;;;7.64;91.16
71974;BME280;59840;52.122;5.404;2023-05-19T01:05:41;102905.38;;;7.57;91.59
71974;BME280;59840;52.122;5.404;2023-05-19T01:08:10;102907.53;;;7.53;91.97
71974;BME280;59840;52.122;5.404;2023-05-19T01:10:37;102906.06;;;7.51;91.64
71974;BME280;59840;52.122;5.404;2023-05-19T01:13:04;102909.03;;;7.48;92.17
71974;BME280;59840;52.122;5.404;2023-05-19T01:16:09;102904.78;;;7.47;92.09
71974;BME280;59840;52.122;5.404;2023-05-19T01:30:25;102907.22;;;7.48;92.21
71974;BME280;59840;52.122;5.404;2023-05-19T01:32:56;102898.22;;;7.43;92.82
71974;BME280;59840;52.122;5.404;2023-05-19T01:35:24;102900.19;;;7.40;93.15
71974;BME280;59840;52.122;5.404;2023-05-19T01:37:55;102889.69;;;7.40;93.49
71974;BME280;59840;52.122;5.404;2023-05-19T01:40:23;102887.75;;;7.34;93.51
71974;BME280;59840;52.122;5.404;2023-05-19T01:42:53;102894.34;;;7.30;93.75
71974;BME280;59840;52.122;5.404;2023-05-19T01:45:26;102892.69;;;7.29;94.10
71974;BME280;59840;52.122;5.404;2023-05-19T01:47:55;102887.44;;;7.29;94.13
71974;BME280;59840;52.122;5.404;2023-05-19T01:50:22;102894.72;;;7.27;94.10
71974;BME280;59840;52.122;5.404;2023-05-19T01:52:49;102894.72;;;7.27;94.15
71974;BME280;59840;52.122;5.404;2023-05-19T01:55:15;102894.75;;;7.19;94.74
71974;BME280;59840;52.122;5.404;2023-05-19T01:57:59;102891.47;;;7.17;94.73
71974;BME280;59840;52.122;5.404;2023-05-19T02:05:55;102878.38;;;7.09;94.85
71974;BME280;59840;52.122;5.404;2023-05-19T02:08:26;102878.72;;;7.06;95.47
71974;BME280;59840;52.122;5.404;2023-05-19T02:11:06;102881.34;;;7.06;95.70
71974;BME280;59840;52.122;5.404;2023-05-19T02:13:36;102880.00;;;7.10;95.57
71974;BME280;59840;52.122;5.404;2023-05-19T02:16:08;102885.59;;;7.07;96.07
71974;BME280;59840;52.122;5.404;2023-05-19T02:18:36;102885.78;;;7.05;96.11
71974;BME280;59840;52.122;5.404;2023-05-19T02:21:02;102882.50;;;7.03;95.94
71974;BME280;59840;52.122;5.404;2023-05-19T02:23:29;102881.03;;;7.01;96.05
71974;BME280;59840;52.122;5.404;2023-05-19T02:25:56;102875.28;;;6.97;96.10
71974;BME280;59840;52.122;5.404;2023-05-19T02:28:23;102871.84;;;6.97;96.04
71974;BME280;59840;52.122;5.404;2023-05-19T02:30:53;102877.00;;;6.90;96.66
71974;BME280;59840;52.122;5.404;2023-05-19T02:33:20;102872.91;;;6.88;96.37
71974;BME280;59840;52.122;5.404;2023-05-19T02:35:49;102867.34;;;6.83;96.66
71974;BME280;59840;52.122;5.404;2023-05-19T02:38:16;102865.19;;;6.86;97.11
71974;BME280;59840;52.122;5.404;2023-05-19T02:40:43;102858.66;;;6.82;96.46
71974;BME280;59840;52.122;5.404;2023-05-19T02:43:10;102861.44;;;6.81;97.09
71974;BME280;59840;52.122;5.404;2023-05-19T02:45:36;102860.78;;;6.79;97.00
71974;BME280;59840;52.122;5.404;2023-05-19T02:48:03;102860.47;;;6.73;97.55
71974;BME280;59840;52.122;5.404;2023-05-19T02:50:30;102853.59;;;6.72;97.51
71974;BME280;59840;52.122;5.404;2023-05-19T02:52:57;102853.25;;;6.76;97.93
71974;BME280;59840;52.122;5.404;2023-05-19T02:55:23;102856.19;;;6.81;97.64
71974;BME280;59840;52.122;5.404;2023-05-19T02:57:50;102859.78;;;6.80;97.44
71974;BME280;59840;52.122;5.404;2023-05-19T03:00:16;102847.66;;;6.79;97.60
71974;BME280;59840;52.122;5.404;2023-05-19T03:02:43;102847.66;;;6.79;97.58
71974;BME280;59840;52.122;5.404;2023-05-19T03:05:10;102849.63;;;6.77;97.52
71974;BME280;59840;52.122;5.404;2023-05-19T03:07:36;102840.94;;;6.76;97.88
71974;BME280;59840;52.122;5.404;2023-05-19T03:10:03;102839.81;;;6.70;98.08
71974;BME280;59840;52.122;5.404;2023-05-19T03:12:32;102844.41;;;6.68;98.03
71974;BME280;59840;52.122;5.404;2023-05-19T03:14:59;102842.28;;;6.72;98.73
71974;BME280;59840;52.122;5.404;2023-05-19T03:17:26;102843.09;;;6.72;98.50
71974;BME280;59840;52.122;5.404;2023-05-19T03:19:54;102845.72;;;6.72;98.55
71974;BME280;59840;52.122;5.404;2023-05-19T03:22:21;102856.22;;;6.72;98.82
71974;BME280;59840;52.122;5.404;2023-05-19T03:24:47;102846.69;;;6.71;98.54
71974;BME280;59840;52.122;5.404;2023-05-19T03:27:16;102848.19;;;6.66;98.45
71974;BME280;59840;52.122;5.404;2023-05-19T03:29:42;102844.78;;;6.57;98.80
71974;BME280;59840;52.122;5.404;2023-05-19T03:32:09;102848.41;;;6.56;98.96
71974;BME280;59840;52.122;5.404;2023-05-19T03:34:35;102849.72;;;6.52;99.20
71974;BME280;59840;52.122;5.404;2023-05-19T03:37:02;102842.34;;;6.48;98.94
71974;BME280;59840;52.122;5.404;2023-05-19T03:39:29;102838.59;;;6.42;98.97
71974;BME280;59840;52.122;5.404;2023-05-19T03:41:55;102843.19;;;6.40;99.90
71974;BME280;59840;52.122;5.404;2023-05-19T03:44:22;102836.28;;;6.47;99.70
71974;BME280;59840;52.122;5.404;2023-05-19T03:46:48;102836.44;;;6.54;99.54
71974;BME280;59840;52.122;5.404;2023-05-19T03:49:15;102839.22;;;6.52;99.27
71974;BME280;59840;52.122;5.404;2023-05-19T03:51:41;102837.63;;;6.43;99.57
71974;BME280;59840;52.122;5.404;2023-05-19T03:54:09;102833.50;;;6.41;99.83
71974;BME280;59840;52.122;5.404;2023-05-19T03:56:39;102840.56;;;6.40;100.00
71974;BME280;59840;52.122;5.404;2023-05-19T03:59:07;102838.59;;;6.50;100.00
71974;BME280;59840;52.122;5.404;2023-05-19T04:01:36;102843.16;;;6.56;99.91
71974;BME280;59840;52.122;5.404;2023-05-19T04:04:02;102845.41;;;6.59;99.86
71974;BME280;59840;52.122;5.404;2023-05-19T04:06:29;102847.41;;;6.57;99.75
71974;BME280;59840;52.122;5.404;2023-05-19T04:08:56;102844.97;;;6.56;99.92
71974;BME280;59840;52.122;5.404;2023-05-19T04:11:22;102846.78;;;6.55;99.73
71974;BME280;59840;52.122;5.404;2023-05-19T04:13:49;102844.78;;;6.57;99.79
71974;BME280;59840;52.122;5.404;2023-05-19T04:16:16;102845.41;;;6.59;99.82
71974;BME280;59840;52.122;5.404;2023-05-19T04:18:43;102847.72;;;6.62;99.84
71974;BME280;59840;52.122;5.404;2023-05-19T04:21:11;102852.63;;;6.65;100.00
71974;BME280;59840;52.122;5.404;2023-05-19T04:23:38;102846.56;;;6.65;100.00
71974;BME280;59840;52.122;5.404;2023-05-19T04:26:04;102856.72;;;6.68;100.00
71974;BME280;59840;52.122;5.404;2023-05-19T04:28:32;102854.88;;;6.77;100.00
71974;BME280;59840;52.122;5.404;2023-05-19T04:31:01;102853.41;;;6.82;100.00
71974;BME280;59840;52.122;5.404;2023-05-19T04:33:28;102846.81;;;6.86;100.00
71974;BME280;59840;52.122;5.404;2023-05-19T04:35:55;102845.59;;;6.97;100.00
71974;BME280;59840;52.122;5.404;2023-05-19T04:38:22;102850.78;;;7.13;100.00
71974;BME280;59840;52.122;5.404;2023-05-19T04:40:48;102849.63;;;7.16;99.12
71974;BME280;59840;52.122;5.404;2023-05-19T04:43:17;102853.13;;;7.08;99.86
71974;BME280;59840;52.122;5.404;2023-05-19T04:45:44;102850.34;;;7.32;99.18
71974;BME280;59840;52.122;5.404;2023-05-19T04:48:11;102854.09;;;7.38;98.90
71974;BME280;59840;52.122;5.404;2023-05-19T04:50:39;102859.31;;;7.46;98.62
71974;BME280;59840;52.122;5.404;2023-05-19T04:53:10;102857.50;;;7.47;98.54
71974;BME280;59840;52.122;5.404;2023-05-19T04:55:37;102856.84;;;7.45;99.15
71974;BME280;59840;52.122;5.404;2023-05-19T04:58:04;102859.13;;;7.48;99.30
71974;BME280;59840;52.122;5.404;2023-05-19T05:00:31;102861.00;;;7.62;99.75
71974;BME280;59840;52.122;5.404;2023-05-19T05:02:58;102852.88;;;7.71;99.27
71974;BME280;59840;52.122;5.404;2023-05-19T05:05:24;102866.59;;;7.82;98.61
71974;BME280;59840;52.122;5.404;2023-05-19T05:07:51;102855.84;;;7.91;98.77
71974;BME280;59840;52.122;5.404;2023-05-19T05:10:19;102857.22;;;8.02;97.88
71974;BME280;59840;52.122;5.404;2023-05-19T05:12:47;102863.94;;;8.04;97.56
71974;BME280;59840;52.122;5.404;2023-05-19T05:15:14;102868.22;;;8.05;97.79
71974;BME280;59840;52.122;5.404;2023-05-19T05:17:41;102870.25;;;8.18;97.16
71974;BME280;59840;52.122;5.404;2023-05-19T05:20:09;102864.91;;;8.26;96.72
71974;BME280;59840;52.122;5.404;2023-05-19T05:22:37;102860.13;;;8.30;96.41
71974;BME280;59840;52.122;5.404;2023-05-19T05:25:07;102864.31;;;8.39;97.58
71974;BME280;59840;52.122;5.404;2023-05-19T05:27:33;102869.22;;;8.42;96.56
71974;BME280;59840;52.122;5.404;2023-05-19T05:30:00;102865.59;;;8.43;96.27
71974;BME280;59840;52.122;5.404;2023-05-19T05:32:27;102867.69;;;8.48;96.19
71974;BME280;59840;52.122;5.404;2023-05-19T05:34:54;102863.34;;;8.55;96.82
71974;BME280;59840;52.122;5.404;2023-05-19T05:37:20;102854.69;;;8.46;96.46
71974;BME280;59840;52.122;5.404;2023-05-19T05:39:47;102862.41;;;8.48;96.04
71974;BME280;59840;52.122;5.404;2023-05-19T05:42:14;102857.44;;;8.53;97.04
71974;BME280;59840;52.122;5.404;2023-05-19T05:44:41;102859.81;;;8.62;96.04
71974;BME280;59840;52.122;5.404;2023-05-19T05:47:08;102861.69;;;8.68;95.65
71974;BME280;59840;52.122;5.404;2023-05-19T05:49:35;102863.78;;;8.73;95.78
71974;BME280;59840;52.122;5.404;2023-05-19T05:52:04;102864.50;;;8.82;95.48
71974;BME280;59840;52.122;5.404;2023-05-19T05:54:32;102864.03;;;8.93;95.05
71974;BME280;59840;52.122;5.404;2023-05-19T05:56:59;102866.38;;;9.02;94.43
71974;BME280;59840;52.122;5.404;2023-05-19T05:59:27;102867.19;;;9.03;94.07
71974;BME280;59840;52.122;5.404;2023-05-19T06:01:54;102863.19;;;9.07;93.62
71974;BME280;59840;52.122;5.404;2023-05-19T06:04:21;102867.47;;;9.08;94.29
71974;BME280;59840;52.122;5.404;2023-05-19T06:06:47;102862.09;;;9.16;93.68
71974;BME280;59840;52.122;5.404;2023-05-19T06:09:16;102865.25;;;9.26;93.44
71974;BME280;59840;52.122;5.404;2023-05-19T06:11:43;102859.25;;;9.32;92.78
71974;BME280;59840;52.122;5.404;2023-05-19T06:14:09;102863.50;;;9.33;92.47
71974;BME280;59840;52.122;5.404;2023-05-19T06:16:36;102864.00;;;9.44;92.77
71974;BME280;59840;52.122;5.404;2023-05-19T06:19:03;102865.78;;;9.58;92.37
71974;BME280;59840;52.122;5.404;2023-05-19T06:21:29;102867.03;;;9.62;91.25
71974;BME280;59840;52.122;5.404;2023-05-19T06:23:56;102861.03;;;9.68;90.91
71974;BME280;59840;52.122;5.404;2023-05-19T06:26:23;102861.06;;;9.74;91.38
71974;BME280;59840;52.122;5.404;2023-05-19T06:28:49;102859.56;;;9.87;91.36
71974;BME280;59840;52.122;5.404;2023-05-19T06:31:16;102858.41;;;9.96;91.00
71974;BME280;59840;52.122;5.404;2023-05-19T06:33:43;102859.28;;;10.03;91.02
71974;BME280;59840;52.122;5.404;2023-05-19T06:36:09;102862.59;;;10.12;89.89
71974;BME280;59840;52.122;5.404;2023-05-19T06:38:37;102847.81;;;10.17;88.39
71974;BME280;59840;52.122;5.404;2023-05-19T06:41:03;102861.47;;;10.21;90.82
71974;BME280;59840;52.122;5.404;2023-05-19T06:43:30;102851.41;;;10.31;88.62
71974;BME280;59840;52.122;5.404;2023-05-19T06:45:57;102853.91;;;10.39;90.45
71974;BME280;59840;52.122;5.404;2023-05-19T06:48:23;102854.34;;;10.49;88.98
71974;BME280;59840;52.122;5.404;2023-05-19T06:50:50;102855.84;;;10.58;88.31
71974;BME280;59840;52.122;5.404;2023-05-19T06:53:18;102852.00;;;10.61;87.07
71974;BME280;59840;52.122;5.404;2023-05-19T06:55:45;102856.91;;;10.70;88.01
71974;BME280;59840;52.122;5.404;2023-05-19T06:58:24;102854.72;;;10.81;86.62
71974;BME280;59840;52.122;5.404;2023-05-19T07:00:51;102856.97;;;10.84;87.05
71974;BME280;59840;52.122;5.404;2023-05-19T07:03:18;102855.19;;;10.91;87.00
71974;BME280;59840;52.122;5.404;2023-05-19T07:05:45;102859.91;;;11.02;86.21
71974;BME280;59840;52.122;5.404;2023-05-19T07:08:12;102861.16;;;11.06;85.81
71974;BME280;59840;52.122;5.404;2023-05-19T07:10:38;102854.84;;;11.07;83.22
71974;BME280;59840;52.122;5.404;2023-05-19T07:13:05;102860.31;;;11.12;82.97
71974;BME280;59840;52.122;5.404;2023-05-19T07:15:31;102855.25;;;11.17;83.01
71974;BME280;59840;52.122;5.404;2023-05-19T07:17:58;102851.25;;;11.28;81.70
71974;BME280;59840;52.122;5.404;2023-05-19T07:20:25;102859.00;;;11.43;84.29
71974;BME280;59840;52.122;5.404;2023-05-19T07:22:52;102857.78;;;11.52;81.98
71974;BME280;59840;52.122;5.404;2023-05-19T07:25:18;102853.94;;;11.61;81.86
71974;BME280;59840;52.122;5.404;2023-05-19T07:27:45;102857.84;;;11.71;80.84
71974;BME280;59840;52.122;5.404;2023-05-19T07:30:12;102853.16;;;11.87;77.60
71974;BME280;59840;52.122;5.404;2023-05-19T07:32:39;102857.03;;;11.97;76.46
71974;BME280;59840;52.122;5.404;2023-05-19T07:35:06;102855.00;;;12.06;75.78
71974;BME280;59840;52.122;5.404;2023-05-19T07:37:32;102854.41;;;12.11;75.85
71974;BME280;59840;52.122;5.404;2023-05-19T07:39:59;102854.38;;;12.24;75.20
71974;BME280;59840;52.122;5.404;2023-05-19T07:42:25;102858.66;;;12.25;75.24
71974;BME280;59840;52.122;5.404;2023-05-19T07:44:52;102857.63;;;12.26;73.90
71974;BME280;59840;52.122;5.404;2023-05-19T07:47:18;102859.25;;;12.27;72.64
71974;BME280;59840;52.122;5.404;2023-05-19T07:49:45;102845.00;;;12.34;71.87
71974;BME280;59840;52.122;5.404;2023-05-19T07:52:15;102845.75;;;12.48;70.81
71974;BME280;59840;52.122;5.404;2023-05-19T07:54:44;102841.47;;;12.60;73.03
71974;BME280;59840;52.122;5.404;2023-05-19T07:57:11;102835.94;;;12.68;69.89
71974;BME280;59840;52.122;5.404;2023-05-19T07:59:37;102843.25;;;12.80;69.55
71974;BME280;59840;52.122;5.404;2023-05-19T08:02:04;102837.69;;;12.88;69.46
71974;BME280;59840;52.122;5.404;2023-05-19T08:04:31;102835.44;;;12.91;68.03
71974;BME280;59840;52.122;5.404;2023-05-19T08:06:58;102826.22;;;13.00;68.16
71974;BME280;59840;52.122;5.404;2023-05-19T08:09:27;102823.72;;;13.12;67.46
71974;BME280;59840;52.122;5.404;2023-05-19T08:11:54;102828.72;;;13.33;68.36
71974;BME280;59840;52.122;5.404;2023-05-19T08:14:20;102828.56;;;13.53;66.38
71974;BME280;59840;52.122;5.404;2023-05-19T08:16:48;102828.25;;;13.68;64.56
71974;BME280;59840;52.122;5.404;2023-05-19T08:19:15;102822.31;;;13.72;63.96
71974;BME280;59840;52.122;5.404;2023-05-19T08:21:42;102824.06;;;13.85;63.62
71974;BME280;59840;52.122;5.404;2023-05-19T08:24:10;102818.34;;;14.06;61.10
71974;BME280;59840;52.122;5.404;2023-05-19T08:26:36;102811.78;;;14.09;61.72
71974;BME280;59840;52.122;5.404;2023-05-19T08:29:03;102809.28;;;14.14;60.80
71974;BME280;59840;52.122;5.404;2023-05-19T08:31:30;102803.44;;;14.24;59.59
71974;BME280;59840;52.122;5.404;2023-05-19T08:33:57;102816.88;;;14.29;60.79
71974;BME280;59840;52.122;5.404;2023-05-19T08:36:23;102802.13;;;14.33;60.46
71974;BME280;59840;52.122;5.404;2023-05-19T08:38:50;102802.47;;;14.43;58.68
71974;BME280;59840;52.122;5.404;2023-05-19T08:41:16;102806.22;;;14.54;58.75
71974;BME280;59840;52.122;5.404;2023-05-19T08:43:43;102799.63;;;14.56;56.79
71974;BME280;59840;52.122;5.404;2023-05-19T08:46:12;102795.72;;;14.59;57.01
71974;BME280;59840;52.122;5.404;2023-05-19T08:48:41;102797.25;;;14.66;56.71
71974;BME280;59840;52.122;5.404;2023-05-19T08:51:26;102790.53;;;14.82;55.69
71974;BME280;59840;52.122;5.404;2023-05-19T08:54:06;102784.66;;;14.92;52.73
71974;BME280;59840;52.122;5.404;2023-05-19T08:56:34;102785.97;;;15.01;52.25
71974;BME280;59840;52.122;5.404;2023-05-19T08:59:02;102776.78;;;15.15;50.97
71974;BME280;59840;52.122;5.404;2023-05-19T09:01:29;102780.47;;;15.26;52.55
71974;BME280;59840;52.122;5.404;2023-05-19T09:03:56;102778.75;;;15.31;52.30
71974;BME280;59840;52.122;5.404;2023-05-19T09:06:25;102779.44;;;15.27;52.93
71974;BME280;59840;52.122;5.404;2023-05-19T09:08:51;102782.09;;;15.27;49.92
71974;BME280;59840;52.122;5.404;2023-05-19T09:11:18;102780.75;;;15.24;51.33
71974;BME280;59840;52.122;5.404;2023-05-19T09:13:45;102776.78;;;15.15;51.41
71974;BME280;59840;52.122;5.404;2023-05-19T09:16:12;102773.22;;;15.21;53.10
71974;BME280;59840;52.122;5.404;2023-05-19T09:18:38;102771.13;;;15.23;50.55
71974;BME280;59840;52.122;5.404;2023-05-19T09:21:06;102783.03;;;15.32;50.08
71974;BME280;59840;52.122;5.404;2023-05-19T09:23:33;102777.72;;;15.32;48.98
71974;BME280;59840;52.122;5.404;2023-05-19T09:26:04;102768.25;;;15.36;50.36
71974;BME280;59840;52.122;5.404;2023-05-19T09:28:35;102775.56;;;15.41;50.07
71974;BME280;59840;52.122;5.404;2023-05-19T09:31:09;102775.44;;;15.48;53.41
71974;BME280;59840;52.122;5.404;2023-05-19T09:33:37;102770.34;;;15.46;49.39
71974;BME280;59840;52.122;5.404;2023-05-19T09:36:05;102776.94;;;15.43;48.67
71974;BME280;59840;52.122;5.404;2023-05-19T09:38:34;102781.47;;;15.43;51.56
71974;BME280;59840;52.122;5.404;2023-05-19T09:41:03;102772.22;;;15.46;51.24
71974;BME280;59840;52.122;5.404;2023-05-19T09:43:30;102771.53;;;15.50;49.41
71974;BME280;59840;52.122;5.404;2023-05-19T09:48:27;102762.44;;;15.58;52.95
71974;BME280;59840;52.122;5.404;2023-05-19T09:50:53;102767.53;;;15.59;51.14
71974;BME280;59840;52.122;5.404;2023-05-19T09:53:20;102756.63;;;15.61;50.42
71974;BME280;59840;52.122;5.404;2023-05-19T09:55:48;102768.56;;;15.58;50.41
71974;BME280;59840;52.122;5.404;2023-05-19T09:58:17;102767.13;;;15.56;52.10
71974;BME280;59840;52.122;5.404;2023-05-19T10:00:45;102756.03;;;15.47;52.42
71974;BME280;59840;52.122;5.404;2023-05-19T10:03:12;102760.84;;;15.38;50.45
71974;BME280;59840;52.122;5.404;2023-05-19T10:05:40;102763.06;;;15.41;50.20
71974;BME280;59840;52.122;5.404;2023-05-19T10:08:07;102766.19;;;15.50;50.67
71974;BME280;59840;52.122;5.404;2023-05-19T10:10:36;102761.22;;;15.42;50.68
71974;BME280;59840;52.122;5.404;2023-05-19T10:13:04;102760.72;;;15.33;50.66
71974;BME280;59840;52.122;5.404;2023-05-19T10:15:31;102754.84;;;15.43;49.16
71974;BME280;59840;52.122;5.404;2023-05-19T10:18:14;102752.53;;;15.47;49.79
71974;BME280;59840;52.122;5.404;2023-05-19T10:20:43;102747.34;;;15.52;51.64
71974;BME280;59840;52.122;5.404;2023-05-19T10:23:09;102741.69;;;15.60;50.60
71974;BME280;59840;52.122;5.404;2023-05-19T10:25:36;102742.63;;;15.65;49.69
71974;BME280;59840;52.122;5.404;2023-05-19T10:28:12;102739.28;;;15.70;50.68
71974;BME280;59840;52.122;5.404;2023-05-19T10:30:42;102736.38;;;15.83;48.93
71974;BME280;59840;52.122;5.404;2023-05-19T10:33:12;102734.19;;;15.80;50.00
71974;BME280;59840;52.122;5.404;2023-05-19T10:38:40;102732.09;;;15.94;49.98
71974;BME280;59840;52.122;5.404;2023-05-19T10:46:28;102725.91;;;16.17;49.27
71974;BME280;59840;52.122;5.404;2023-05-19T10:48:56;102725.22;;;16.21;49.23
71974;BME280;59840;52.122;5.404;2023-05-19T10:51:32;102712.59;;;16.17;50.82
71974;BME280;59840;52.122;5.404;2023-05-19T10:54:06;102717.56;;;16.25;52.97
71974;BME280;59840;52.122;5.404;2023-05-19T10:56:38;102717.72;;;16.35;48.94
71974;BME280;59840;52.122;5.404;2023-05-19T10:59:30;102730.69;;;16.43;50.56
71974;BME280;59840;52.122;5.404;2023-05-19T11:02:05;102719.31;;;16.48;52.48
71974;BME280;59840;52.122;5.404;2023-05-19T11:04:47;102714.56;;;16.50;51.69
71974;BME280;59840;52.122;5.404;2023-05-19T11:07:18;102709.75;;;16.63;50.01
71974;BME280;59840;52.122;5.404;2023-05-19T11:09:52;102711.06;;;16.61;50.53
71974;BME280;59840;52.122;5.404;2023-05-19T11:12:19;102711.75;;;16.56;47.78
71974;BME280;59840;52.122;5.404;2023-05-19T11:14:47;102714.97;;;16.70;56.93
71974;BME280;59840;52.122;5.404;2023-05-19T11:17:14;102701.19;;;17.06;50.21
71974;BME280;59840;52.122;5.404;2023-05-19T11:19:52;102700.28;;;17.01;47.31
71974;BME280;59840;52.122;5.404;2023-05-19T11:22:24;102704.56;;;17.02;44.74
71974;BME280;59840;52.122;5.404;2023-05-19T11:24:53;102697.81;;;16.94;45.56
71974;BME280;59840;52.122;5.404;2023-05-19T11:27:26;102702.16;;;16.84;44.83
71974;BME280;59840;52.122;5.404;2023-05-19T11:29:55;102707.06;;;16.75;45.40
71974;BME280;59840;52.122;5.404;2023-05-19T11:32:25;102704.72;;;16.79;46.13
71974;BME280;59840;52.122;5.404;2023-05-19T11:34:54;102690.16;;;16.69;46.42
71974;BME280;59840;52.122;5.404;2023-05-19T11:37:21;102695.00;;;16.72;44.64
71974;BME280;59840;52.122;5.404;2023-05-19T11:39:48;102685.00;;;16.80;44.64
71974;BME280;59840;52.122;5.404;2023-05-19T11:42:15;102691.66;;;16.94;48.83
71974;BME280;59840;52.122;5.404;2023-05-19T11:44:45;102684.47;;;17.11;46.55
71974;BME280;59840;52.122;5.404;2023-05-19T11:47:12;102690.38;;;17.13;47.86
71974;BME280;59840;52.122;5.404;2023-05-19T11:49:58;102695.44;;;17.15;48.50
71974;BME280;59840;52.122;5.404;2023-05-19T11:52:25;102691.16;;;17.14;45.09
71974;BME280;59840;52.122;5.404;2023-05-19T11:54:59;102686.06;;;17.12;44.16
71974;BME280;59840;52.122;5.404;2023-05-19T11:57:26;102672.09;;;17.05;46.11
71974;BME280;59840;52.122;5.404;2023-05-19T11:59:53;102676.53;;;16.99;45.36
71974;BME280;59840;52.122;5.404;2023-05-19T12:02:23;102676.53;;;16.99;44.94
71974;BME280;59840;52.122;5.404;2023-05-19T12:04:53;102674.44;;;17.01;45.95
71974;BME280;59840;52.122;5.404;2023-05-19T12:07:23;102687.13;;;17.28;41.60
71974;BME280;59840;52.122;5.404;2023-05-19T12:09:51;102686.94;;;17.34;40.26
71974;BME280;59840;52.122;5.404;2023-05-19T12:12:19;102690.66;;;17.33;43.79
71974;BME280;59840;52.122;5.404;2023-05-19T12:14:51;102686.31;;;17.27;41.66
71974;BME280;59840;52.122;5.404;2023-05-19T12:17:19;102670.94;;;17.34;43.63
71974;BME280;59840;52.122;5.404;2023-05-19T12:19:48;102671.09;;;17.45;41.43
71974;BME280;59840;52.122;5.404;2023-05-19T12:22:16;102674.72;;;17.38;41.46
71974;BME280;59840;52.122;5.404;2023-05-19T12:24:43;102676.09;;;17.41;41.69
71974;BME280;59840;52.122;5.404;2023-05-19T12:27:12;102671.16;;;17.50;40.99
71974;BME280;59840;52.122;5.404;2023-05-19T12:29:42;102675.69;;;17.49;39.83
71974;BME280;59840;52.122;5.404;2023-05-19T12:32:08;102668.81;;;17.53;41.44
71974;BME280;59840;52.122;5.404;2023-05-19T12:34:36;102670.09;;;17.51;41.74
71974;BME280;59840;52.122;5.404;2023-05-19T12:37:04;102655.06;;;17.45;42.10
71974;BME280;59840;52.122;5.404;2023-05-19T12:39:31;102657.97;;;17.60;44.91
71974;BME280;59840;52.122;5.404;2023-05-19T12:42:03;102657.22;;;17.64;46.35
71974;BME280;59840;52.122;5.404;2023-05-19T12:44:29;102654.94;;;17.73;46.60
71974;BME280;59840;52.122;5.404;2023-05-19T12:46:58;102654.75;;;17.80;50.11
71974;BME280;59840;52.122;5.404;2023-05-19T12:49:25;102653.88;;;17.74;47.30
71974;BME280;59840;52.122;5.404;2023-05-19T12:51:52;102644.19;;;17.68;47.03
71974;BME280;59840;52.122;5.404;2023-05-19T12:54:20;102651.66;;;17.66;48.88
71974;BME280;59840;52.122;5.404;2023-05-19T12:56:49;102643.06;;;17.64;46.70
71974;BME280;59840;52.122;5.404;2023-05-19T12:59:23;102643.97;;;17.53;46.94
71974;BME280;59840;52.122;5.404;2023-05-19T13:02:03;102639.22;;;17.55;48.52
71974;BME280;59840;52.122;5.404;2023-05-19T13:04:30;102636.13;;;17.63;47.22
71974;BME280;59840;52.122;5.404;2023-05-19T13:06:57;102646.97;;;17.56;44.84
71974;BME280;59840;52.122;5.404;2023-05-19T13:09:23;102639.56;;;17.41;45.60
71974;BME280;59840;52.122;5.404;2023-05-19T13:11:50;102637.03;;;17.52;48.42
71974;BME280;59840;52.122;5.404;2023-05-19T13:14:19;102643.41;;;17.51;46.03
71974;BME280;59840;52.122;5.404;2023-05-19T13:16:46;102652.66;;;17.43;46.54
71974;BME280;59840;52.122;5.404;2023-05-19T13:19:18;102637.44;;;17.43;47.24
71974;BME280;59840;52.122;5.404;2023-05-19T13:21:47;102641.31;;;17.53;48.61
71974;BME280;59840;52.122;5.404;2023-05-19T13:24:16;102641.63;;;17.56;46.22
71974;BME280;59840;52.122;5.404;2023-05-19T13:26:44;102634.13;;;17.53;46.54
71974;BME280;59840;52.122;5.404;2023-05-19T13:29:10;102630.06;;;17.51;48.15